Time;durP1;ratioP1;P1;durP2;ratioP2;P2;SDS_P1;SDS_P2;PMS_P1;PMS_P2;Temp;Humidity;BMP_temperature;BMP_pressure;BME280_temperature;BME280_humidity;BME280_pressure;Samples;Min_cycle;Max_cycle;Signal;HPM_P1;HPM_P2
2023/04/03 00:02:01;;;;;;;2.17;2.00;;;;;;;2.91;100.00;103054.56;10374830;28;20443;-75
2023/04/03 00:07:02;;;;;;;3.60;2.05;;;;;;;2.86;100.00;103060.16;10375224;28;20038;-75
2023/04/03 00:12:02;;;;;;;2.70;2.22;;;;;;;2.78;100.00;103062.47;10389937;28;20037;-75
2023/04/03 00:17:02;;;;;;;4.68;3.08;;;;;;;2.74;100.00;103072.50;10374405;28;20040;-75
2023/04/03 00:22:03;;;;;;;5.50;3.03;;;;;;;2.65;100.00;103064.13;10374028;28;20120;-75
2023/04/03 00:27:03;;;;;;;3.80;3.42;;;;;;;2.63;100.00;103068.75;10374339;28;20146;-75
2023/04/03 00:32:04;;;;;;;8.27;4.80;;;;;;;2.56;100.00;103069.09;10389645;28;20461;-75
2023/04/03 00:37:04;;;;;;;5.38;2.53;;;;;;;2.42;100.00;103061.03;10373898;28;20049;-74
2023/04/03 00:42:05;;;;;;;7.20;2.53;;;;;;;2.44;100.00;103064.50;10374930;28;20046;-75
2023/04/03 00:47:06;;;;;;;4.07;2.60;;;;;;;2.38;100.00;103075.53;10372560;28;20026;-76
2023/04/03 00:52:08;;;;;;;3.92;2.63;;;;;;;2.39;100.00;103065.69;10388728;28;20038;-74
2023/04/03 00:57:08;;;;;;;2.80;2.45;;;;;;;2.44;100.00;103063.63;10388882;28;20037;-74
2023/04/03 01:02:09;;;;;;;2.45;2.35;;;;;;;2.46;100.00;103069.75;10372484;28;20038;-75
2023/04/03 01:07:11;;;;;;;2.70;2.20;;;;;;;2.40;100.00;103080.81;10373407;28;20072;-74
2023/04/03 01:12:21;;;;;;;3.15;2.53;;;;;;;2.35;100.00;103086.41;10387981;28;20084;-75
2023/04/03 01:17:36;;;;;;;3.05;2.28;;;;;;;2.30;100.00;103075.16;10388485;28;20117;-76
2023/04/03 01:22:51;;;;;;;2.28;2.00;;;;;;;2.25;100.00;103075.41;10373868;28;20449;-76
2023/04/03 01:27:52;;;;;;;2.83;1.98;;;;;;;2.26;100.00;103086.94;10387367;28;20116;-75
2023/04/03 01:32:52;;;;;;;4.30;2.33;;;;;;;2.22;100.00;103088.09;10392648;28;20573;-75
2023/04/03 01:37:52;;;;;;;3.33;3.10;;;;;;;2.30;100.00;103088.53;10381093;28;20122;-75
2023/04/03 01:42:53;;;;;;;3.65;2.47;;;;;;;2.25;100.00;103086.09;10394979;28;20478;-75
2023/04/03 01:47:53;;;;;;;6.00;2.25;;;;;;;2.34;100.00;103074.00;10378532;28;20041;-76
2023/04/03 01:52:54;;;;;;;4.82;2.92;;;;;;;2.26;100.00;103090.47;10395501;28;20038;-75
2023/04/03 01:57:54;;;;;;;2.30;2.00;;;;;;;2.13;100.00;103089.47;10379558;28;20033;-74
2023/04/03 02:02:55;;;;;;;3.13;2.85;;;;;;;2.13;100.00;103100.16;10379411;28;20073;-74
2023/04/03 02:07:56;;;;;;;2.50;1.90;;;;;;;1.99;100.00;103092.94;10395650;28;20042;-75
2023/04/03 02:12:56;;;;;;;1.75;1.65;;;;;;;1.93;100.00;103097.78;10378641;28;20121;-75
2023/04/03 02:17:56;;;;;;;5.68;2.80;;;;;;;1.95;100.00;103104.78;10378826;28;20038;-75
2023/04/03 02:22:57;;;;;;;3.33;2.45;;;;;;;1.92;100.00;103106.75;10378892;28;20038;-75
2023/04/03 02:27:58;;;;;;;3.08;2.50;;;;;;;1.79;100.00;103115.47;10378522;28;20034;-75
2023/04/03 02:32:58;;;;;;;2.45;2.10;;;;;;;1.67;100.00;103110.81;10378510;28;20050;-76
2023/04/03 02:37:58;;;;;;;2.10;1.88;;;;;;;1.52;100.00;103117.84;10378237;28;20041;-74
2023/04/03 02:42:59;;;;;;;6.13;2.92;;;;;;;1.49;100.00;103111.81;10378342;28;20042;-75
2023/04/03 02:47:59;;;;;;;7.38;3.30;;;;;;;1.53;100.00;103118.69;10377045;28;20034;-75
2023/04/03 02:53:00;;;;;;;4.28;2.70;;;;;;;1.47;100.00;103117.25;10378072;28;20037;-74
2023/04/03 02:58:00;;;;;;;2.50;2.40;;;;;;;1.33;100.00;103119.78;10377366;28;20056;-74
2023/04/03 03:03:01;;;;;;;7.40;2.50;;;;;;;1.28;100.00;103113.84;10392398;28;20045;-75
2023/04/03 03:08:01;;;;;;;4.07;2.53;;;;;;;1.20;100.00;103116.91;10376877;28;20069;-75
2023/04/03 03:13:02;;;;;;;5.28;2.88;;;;;;;1.17;100.00;103128.59;10392027;28;20405;-75
2023/04/03 03:18:02;;;;;;;6.82;3.33;;;;;;;1.20;100.00;103121.38;10392575;28;20512;-74
2023/04/03 03:23:02;;;;;;;9.95;2.47;;;;;;;1.10;100.00;103124.53;10377263;28;20034;-76
2023/04/03 03:28:03;;;;;;;6.50;2.63;;;;;;;1.07;100.00;103124.69;10391445;28;20060;-75
2023/04/03 03:33:03;;;;;;;3.28;3.03;;;;;;;1.07;100.00;103132.72;10374013;28;20096;-75
2023/04/03 03:38:04;;;;;;;12.57;3.22;;;;;;;1.00;100.00;103125.97;10391216;28;20034;-75
2023/04/03 03:43:04;;;;;;;3.80;2.58;;;;;;;1.00;100.00;103141.13;10391470;28;20052;-75
2023/04/03 03:48:05;;;;;;;2.97;2.78;;;;;;;0.98;100.00;103141.19;10375449;28;20213;-75
2023/04/03 03:53:05;;;;;;;8.55;3.42;;;;;;;0.98;100.00;103140.34;10373622;28;20042;-74
2023/04/03 03:58:06;;;;;;;4.10;2.85;;;;;;;0.92;100.00;103142.38;10376135;28;20057;-74
2023/04/03 04:03:06;;;;;;;3.40;2.90;;;;;;;0.85;100.00;103145.44;10374358;28;20049;-74
2023/04/03 04:08:07;;;;;;;3.75;3.25;;;;;;;0.82;100.00;103142.94;10390451;28;20072;-75
2023/04/03 04:13:07;;;;;;;3.83;2.90;;;;;;;0.82;100.00;103141.13;10375281;28;20116;-75
2023/04/03 04:18:08;;;;;;;6.30;3.55;;;;;;;0.80;100.00;103131.47;10375545;28;20454;-74
2023/04/03 04:23:08;;;;;;;2.80;2.58;;;;;;;0.78;100.00;103142.22;10373370;28;20057;-74
2023/04/03 04:28:08;;;;;;;2.95;2.60;;;;;;;0.77;100.00;103153.00;10372849;28;20041;-75
2023/04/03 04:33:09;;;;;;;6.10;3.83;;;;;;;0.77;100.00;103155.66;10374489;28;20050;-75
2023/04/03 04:38:10;;;;;;;3.63;3.33;;;;;;;0.68;100.00;103160.50;10389911;28;20566;-76
2023/04/03 04:43:14;;;;;;;5.45;2.85;;;;;;;0.65;100.00;103152.66;10372531;28;20046;-75
2023/04/03 04:48:14;;;;;;;3.22;2.85;;;;;;;0.68;100.00;103154.31;10374069;28;20445;-75
2023/04/03 04:53:15;;;;;;;6.53;3.95;;;;;;;0.66;100.00;103167.72;10372348;28;20042;-76
2023/04/03 04:58:15;;;;;;;7.15;3.00;;;;;;;0.62;100.00;103163.47;10308211;28;20109;-77
2023/04/03 05:03:16;;;;;;;4.85;3.58;;;;;;;0.52;100.00;103156.03;10372748;28;20113;-76
2023/04/03 05:08:16;;;;;;;8.90;3.60;;;;;;;0.50;100.00;103163.22;10361652;28;20390;-75
2023/04/03 05:13:17;;;;;;;5.43;3.20;;;;;;;0.48;100.00;103166.00;10396429;28;20038;-75
2023/04/03 05:18:17;;;;;;;4.35;3.95;;;;;;;0.45;100.00;103171.47;10379577;28;20125;-74
2023/04/03 05:23:17;;;;;;;4.43;4.03;;;;;;;0.47;100.00;103181.09;10378872;28;20053;-76
2023/04/03 05:28:18;;;;;;;3.92;3.65;;;;;;;0.50;100.00;103174.75;10396012;28;20466;-75
2023/04/03 05:33:18;;;;;;;2.83;2.63;;;;;;;0.57;100.00;103178.84;10382075;28;20050;-75
2023/04/03 05:38:19;;;;;;;7.10;4.28;;;;;;;0.62;100.00;103181.28;10395459;28;20398;-74
2023/04/03 05:43:20;;;;;;;10.52;4.13;;;;;;;0.68;100.00;103186.31;10379955;28;20044;-75
2023/04/03 05:48:20;;;;;;;7.60;3.80;;;;;;;0.83;100.00;103182.00;10380616;28;20030;-74
2023/04/03 05:53:22;;;;;;;4.43;4.07;;;;;;;0.92;100.00;103186.84;10394780;28;20133;-75
2023/04/03 05:58:22;;;;;;;7.28;4.35;;;;;;;1.07;100.00;103199.41;10394884;28;20030;-75
2023/04/03 06:03:23;;;;;;;9.57;3.63;;;;;;;1.10;100.00;103204.59;10379002;28;20382;-75
2023/04/03 06:08:23;;;;;;;6.45;5.00;;;;;;;1.43;100.00;103200.25;10376983;28;20045;-75
2023/04/03 06:13:24;;;;;;;7.35;4.30;;;;;;;3.01;100.00;103208.25;10379657;28;20037;-74
2023/04/03 06:18:24;;;;;;;8.02;4.72;;;;;;;4.22;100.00;103208.78;10377617;28;20061;-75
2023/04/03 06:23:25;;;;;;;4.60;4.20;;;;;;;5.11;100.00;103213.59;10378854;28;20042;-76
2023/04/03 06:28:25;;;;;;;9.00;3.55;;;;;;;5.67;100.00;103214.13;10378038;28;20033;-76
2023/04/03 06:33:26;;;;;;;8.60;3.42;;;;;;;6.17;100.00;103212.38;10377328;28;20054;-76
2023/04/03 06:38:27;;;;;;;5.88;3.17;;;;;;;6.44;100.00;103216.69;10376353;28;20054;-76
2023/04/03 06:43:27;;;;;;;6.65;3.28;;;;;;;6.59;100.00;103210.19;10378308;28;20045;-75
2023/04/03 06:48:29;;;;;;;4.25;3.03;;;;;;;7.18;100.00;103212.00;10376547;28;20058;-76
2023/04/03 06:53:29;;;;;;;4.55;3.13;;;;;;;7.52;100.00;103207.53;10376690;28;20039;-75
2023/04/03 06:58:30;;;;;;;4.22;3.35;;;;;;;7.98;100.00;103221.91;10376405;28;20026;-76
2023/04/03 07:03:30;;;;;;;5.78;4.03;;;;;;;8.40;100.00;103214.00;10378231;28;20380;-76
2023/04/03 07:08:30;;;;;;;5.95;3.13;;;;;;;8.74;99.00;103220.16;10375955;28;20062;-75
2023/04/03 07:13:31;;;;;;;4.10;2.83;;;;;;;8.93;82.43;103217.59;10375919;28;20116;-75
2023/04/03 07:18:32;;;;;;;5.10;3.50;;;;;;;8.94;77.61;103232.84;10374611;28;20033;-77
2023/04/03 07:23:32;;;;;;;6.60;2.45;;;;;;;9.31;82.46;103230.56;10358164;28;20103;-74
2023/04/03 07:28:33;;;;;;;4.68;2.85;;;;;;;9.44;76.60;103234.91;10373437;28;20084;-76
2023/04/03 07:33:34;;;;;;;6.28;3.33;;;;;;;9.27;75.79;103233.66;10376590;28;20126;-76
2023/04/03 07:38:35;;;;;;;8.10;2.30;;;;;;;9.19;67.47;103244.25;10391244;28;20389;-75
2023/04/03 07:43:36;;;;;;;7.88;3.08;;;;;;;8.79;67.17;103253.91;10390993;28;20084;-76
2023/04/03 07:48:37;;;;;;;2.85;2.60;;;;;;;8.85;65.69;103257.94;10375814;28;20073;-74
2023/04/03 07:53:37;;;;;;;5.97;2.83;;;;;;;9.02;64.63;103254.66;10375096;28;20034;-76
2023/04/03 07:58:38;;;;;;;7.13;2.85;;;;;;;8.97;61.43;103254.22;10374384;28;20049;-75
2023/04/03 08:03:39;;;;;;;2.85;2.25;;;;;;;9.42;63.38;103263.94;10374585;28;20049;-75
2023/04/03 08:08:39;;;;;;;6.40;2.70;;;;;;;9.81;60.51;103265.03;10357219;28;20021;-75
2023/04/03 08:13:41;;;;;;;4.60;2.65;;;;;;;9.50;58.51;103269.53;10373166;28;20129;-74
2023/04/03 08:18:41;;;;;;;7.45;2.60;;;;;;;9.85;61.80;103280.00;10389090;28;20050;-79
2023/04/03 08:23:42;;;;;;;5.53;1.92;;;;;;;9.85;56.75;103271.88;10389465;28;20073;-75
2023/04/03 08:28:42;;;;;;;7.15;3.17;;;;;;;10.07;56.86;103280.81;10373601;28;20129;-75
2023/04/03 08:33:42;;;;;;;5.57;3.33;;;;;;;9.98;54.17;103275.22;10373559;28;20150;-75
2023/04/03 08:38:43;;;;;;;1.77;1.67;;;;;;;9.92;54.18;103267.66;10373524;28;20040;-74
2023/04/03 08:44:02;;;;;;;2.10;2.00;;;;;;;10.28;52.57;103275.38;10373375;28;20486;-74
2023/04/03 08:49:02;;;;;;;2.47;2.22;;;;;;;11.13;53.94;103263.94;10387970;28;20073;-74
2023/04/03 08:54:07;;;;;;;2.42;1.70;;;;;;;11.25;51.15;103270.09;10373471;28;20510;-79
2023/04/03 08:59:12;;;;;;;3.85;2.55;;;;;;;10.97;49.33;103274.50;10375129;28;20087;-74
2023/04/03 09:04:14;;;;;;;2.13;2.03;;;;;;;11.02;49.74;103267.66;10388233;28;20045;-75
2023/04/03 09:09:39;;;;;;;1.42;1.33;;;;;;;10.80;46.59;103262.53;10387515;28;20409;-75
2023/04/03 09:14:48;;;;;;;2.15;1.95;;;;;;;10.97;47.63;103263.66;10372128;28;20034;-74
2023/04/03 09:19:57;;;;;;;1.58;1.08;;;;;;;11.26;41.33;103263.66;10387373;28;20117;-75
2023/04/03 09:25:18;;;;;;;1.00;1.00;;;;;;;11.41;40.83;103264.91;10387756;28;20030;-75
2023/04/03 09:30:26;;;;;;;1.25;1.15;;;;;;;11.15;38.27;103276.38;10371254;28;20112;-75
2023/04/03 09:35:31;;;;;;;2.63;2.42;;;;;;;11.30;38.48;103249.69;10388867;28;20041;-75
2023/04/03 09:40:38;;;;;;;1.40;1.30;;;;;;;11.62;40.12;103248.47;10371896;28;20026;-74
2023/04/03 09:45:38;;;;;;;1.17;1.17;;;;;;;11.42;36.76;103269.34;10373217;28;20068;-76
2023/04/03 09:51:02;;;;;;;4.43;1.42;;;;;;;11.52;35.88;103248.50;10372408;28;20076;-75
2023/04/03 09:56:15;;;;;;;1.48;1.38;;;;;;;11.43;34.96;103227.66;10361373;28;20057;-76
2023/04/03 10:01:32;;;;;;;1.38;1.38;;;;;;;11.64;34.82;103238.31;10378930;28;20029;-75
2023/04/03 10:06:40;;;;;;;2.47;1.25;;;;;;;11.59;33.92;103233.34;10377712;28;20108;-75
2023/04/03 10:12:01;;;;;;;3.13;1.25;;;;;;;11.82;34.35;103203.97;10379081;28;20034;-74
2023/04/03 10:17:19;;;;;;;1.83;1.42;;;;;;;11.83;33.45;103223.81;10378468;28;20044;-74
2023/04/03 10:22:29;;;;;;;1.38;1.33;;;;;;;12.09;34.21;103221.28;10394938;28;20034;-74
2023/04/03 10:28:16;;;;;;;1.90;1.42;;;;;;;11.59;33.20;103206.19;10377489;28;20053;-75
2023/04/03 10:33:54;;;;;;;2.33;1.35;;;;;;;11.79;35.25;103206.13;10378533;28;20073;-75
2023/04/03 10:39:32;;;;;;;2.67;1.42;;;;;;;12.32;33.59;103200.88;10376274;28;20228;-75
2023/04/03 10:44:42;;;;;;;2.05;1.50;;;;;;;12.72;33.79;103220.47;10377993;28;20036;-75
2023/04/03 10:50:04;;;;;;;3.15;1.88;;;;;;;12.39;33.25;103195.69;10392584;28;20182;-76
2023/04/03 10:55:39;;;;;;;1.60;1.50;;;;;;;12.74;33.54;103203.00;10392603;28;20069;-76
2023/04/03 11:00:42;;;;;;;2.60;0.90;;;;;;;12.96;32.84;103195.38;10390190;28;20022;-76
2023/04/03 11:05:44;;;;;;;1.23;1.23;;;;;;;13.07;29.73;103197.84;10392467;28;20101;-75
2023/04/03 11:10:49;;;;;;;5.97;1.65;;;;;;;12.61;28.28;103186.22;10374861;28;20045;-75
2023/04/03 11:15:50;;;;;;;7.50;1.42;;;;;;;12.97;30.76;103184.31;10375573;28;20339;-77
2023/04/03 11:20:58;;;;;;;1.48;1.38;;;;;;;13.07;29.40;103175.22;10374901;28;20128;-75
2023/04/03 11:26:11;;;;;;;0.90;0.90;;;;;;;12.55;29.54;103163.22;10374886;28;20072;-75
2023/04/03 11:31:38;;;;;;;1.00;1.00;;;;;;;12.75;29.52;103171.22;10374603;28;20056;-75
2023/04/03 11:36:49;;;;;;;0.93;0.93;;;;;;;13.35;31.32;103165.94;10374631;28;20079;-75
2023/04/03 11:41:50;;;;;;;1.42;1.17;;;;;;;12.98;29.39;103144.38;10390512;28;20033;-75
2023/04/03 11:46:55;;;;;;;1.67;1.58;;;;;;;12.90;30.51;103153.34;10373901;28;20376;-76
2023/04/03 11:51:56;;;;;;;1.60;1.50;;;;;;;13.33;30.13;103137.16;10375411;28;20099;-76
2023/04/03 11:56:57;;;;;;;0.63;0.63;;;;;;;13.59;29.93;103116.25;10390007;28;20088;-75
2023/04/03 12:02:00;;;;;;;1.83;1.52;;;;;;;13.43;30.61;103122.47;10375673;28;20100;-75
2023/04/03 12:07:11;;;;;;;1.73;0.80;;;;;;;13.85;27.52;103135.22;10389176;28;20026;-77
2023/04/03 12:12:35;;;;;;;1.00;1.00;;;;;;;13.30;27.47;103132.06;10374432;28;20025;-76
2023/04/03 12:17:36;;;;;;;0.85;0.85;;;;;;;13.21;25.75;103114.81;10372392;28;20041;-75
2023/04/03 12:22:36;;;;;;;2.17;0.82;;;;;;;12.97;26.91;103121.78;10372691;28;20477;-75
2023/04/03 12:27:40;;;;;;;1.27;1.23;;;;;;;13.75;26.17;103099.09;10389657;28;20113;-75
2023/04/03 12:32:41;;;;;;;1.00;0.95;;;;;;;13.55;26.06;103103.94;10372519;28;20124;-75
2023/04/03 12:38:20;;;;;;;0.90;0.90;;;;;;;13.57;25.88;103079.28;10373948;28;20453;-75
2023/04/03 12:43:32;;;;;;;1.50;1.40;;;;;;;13.28;25.35;103082.41;10373126;28;20112;-75
2023/04/03 12:48:54;;;;;;;2.40;1.50;;;;;;;12.60;26.38;103077.66;10388446;28;20101;-75
2023/04/03 12:54:00;;;;;;;1.00;1.00;;;;;;;12.85;26.69;103084.97;10387271;28;20041;-75
2023/04/03 12:59:23;;;;;;;1.10;1.10;;;;;;;12.88;26.26;103087.38;10374505;28;20045;-76
2023/04/03 13:04:23;;;;;;;0.98;0.98;;;;;;;12.64;26.82;103071.75;10373771;28;20122;-75
2023/04/03 13:09:27;;;;;;;1.10;1.10;;;;;;;12.56;28.21;103075.25;10389406;28;20030;-75
2023/04/03 13:14:28;;;;;;;1.42;1.33;;;;;;;12.51;30.23;103055.00;10388587;28;20080;-76
2023/04/03 13:19:28;;;;;;;1.23;1.23;;;;;;;12.55;28.10;103069.97;10373543;28;20084;-75
2023/04/03 13:24:29;;;;;;;1.52;1.00;;;;;;;12.34;30.31;103073.84;10372001;28;20497;-75
2023/04/03 13:29:35;;;;;;;1.80;1.70;;;;;;;12.36;29.95;103072.88;10378219;28;20026;-76
2023/04/03 13:34:41;;;;;;;0.98;0.98;;;;;;;12.36;30.24;103068.28;10378763;28;20397;-76
2023/04/03 13:39:41;;;;;;;3.40;2.00;;;;;;;12.50;31.25;103075.00;10395436;28;20030;-75
2023/04/03 13:44:42;;;;;;;2.22;1.15;;;;;;;12.45;30.85;103071.94;10379554;28;20042;-76
2023/04/03 13:49:45;;;;;;;2.85;0.95;;;;;;;12.26;31.61;103057.50;10380150;28;20040;-76
2023/04/03 13:54:46;;;;;;;1.40;1.30;;;;;;;12.19;31.50;103053.72;10395258;28;20034;-76
2023/04/03 13:59:46;;;;;;;6.15;1.65;;;;;;;12.26;32.30;103054.78;10395164;28;20470;-77
2023/04/03 14:04:56;;;;;;;5.40;2.40;;;;;;;12.66;30.68;103037.09;10395612;28;20097;-76
2023/04/03 14:09:56;;;;;;;2.63;1.55;;;;;;;12.43;31.57;103030.47;10379615;28;20041;-76
2023/04/03 14:14:56;;;;;;;1.13;1.10;;;;;;;12.28;32.80;103038.31;10378078;28;20141;-76
2023/04/03 14:19:57;;;;;;;1.35;1.25;;;;;;;12.51;32.31;103017.81;10379679;28;20072;-75
2023/04/03 14:24:58;;;;;;;1.30;1.30;;;;;;;12.34;31.25;103008.66;10394013;28;20465;-77
2023/04/03 14:29:58;;;;;;;4.72;1.40;;;;;;;12.21;30.90;102991.06;10377920;28;20129;-75
2023/04/03 14:34:59;;;;;;;9.13;1.98;;;;;;;11.95;31.08;102997.28;10376306;28;20048;-77
2023/04/03 14:40:00;;;;;;;2.90;1.77;;;;;;;11.91;32.64;103005.91;10375665;28;20131;-75
2023/04/03 14:45:01;;;;;;;1.75;1.23;;;;;;;11.69;31.67;102993.59;10377652;28;20034;-75
2023/04/03 14:50:02;;;;;;;1.80;1.42;;;;;;;11.94;33.09;102987.44;10377881;28;20121;-76
2023/04/03 14:55:04;;;;;;;2.30;2.13;;;;;;;11.63;32.24;102995.91;10392946;28;20080;-76
2023/04/03 15:00:06;;;;;;;3.58;2.05;;;;;;;10.91;32.59;102994.88;10377440;28;20116;-76
2023/04/03 15:05:08;;;;;;;3.03;1.58;;;;;;;10.21;34.89;102999.72;10391884;28;20057;-75
2023/04/03 15:10:17;;;;;;;1.48;1.35;;;;;;;9.73;35.85;102996.97;10393323;28;20065;-75
2023/04/03 15:15:19;;;;;;;6.63;1.13;;;;;;;9.32;35.44;102986.22;10377686;28;20030;-74
2023/04/03 15:20:22;;;;;;;1.15;1.00;;;;;;;9.30;36.02;102981.94;10392410;28;20034;-75
2023/04/03 15:25:23;;;;;;;1.20;0.88;;;;;;;9.18;36.03;102980.34;10376653;28;20030;-76
2023/04/03 15:30:24;;;;;;;2.60;1.75;;;;;;;9.14;37.01;102984.31;10391332;28;20088;-76
2023/04/03 15:35:24;;;;;;;1.60;1.48;;;;;;;9.03;36.81;102971.75;10360516;28;20417;-75
2023/04/03 15:40:25;;;;;;;4.40;1.80;;;;;;;9.01;36.30;102962.94;10375371;28;20112;-75
2023/04/03 15:45:30;;;;;;;0.88;0.85;;;;;;;9.03;36.90;102963.63;10376510;28;20032;-76
2023/04/03 15:50:34;;;;;;;1.45;1.35;;;;;;;9.02;38.42;102951.97;10390435;28;20037;-76
2023/04/03 15:55:35;;;;;;;1.25;1.25;;;;;;;9.04;37.80;102958.13;10376511;28;20388;-76
2023/04/03 16:00:36;;;;;;;4.80;1.45;;;;;;;8.98;37.91;102961.38;10376709;28;20045;-74
2023/04/03 16:05:37;;;;;;;3.35;1.67;;;;;;;8.97;38.62;102965.06;10374205;28;20106;-76
2023/04/03 16:10:37;;;;;;;1.70;1.60;;;;;;;8.92;37.89;102977.25;10389122;28;20079;-75
2023/04/03 16:15:38;;;;;;;1.42;1.33;;;;;;;8.88;37.89;102979.38;10373457;28;20068;-77
2023/04/03 16:20:38;;;;;;;2.35;1.88;;;;;;;8.82;38.08;102972.66;10372642;28;20026;-75
2023/04/03 16:25:39;;;;;;;2.85;1.42;;;;;;;8.73;38.32;102975.31;10389328;28;20022;-74
2023/04/03 16:30:40;;;;;;;1.90;1.50;;;;;;;8.73;38.57;102978.03;10373513;28;20060;-77
2023/04/03 16:35:44;;;;;;;3.53;1.63;;;;;;;8.64;38.68;102976.13;10373499;28;20080;-75
2023/04/03 16:40:45;;;;;;;2.20;1.67;;;;;;;8.54;38.65;102971.53;10374924;28;20160;-75
2023/04/03 16:45:45;;;;;;;3.92;1.80;;;;;;;8.54;39.15;102968.81;10388648;28;20470;-75
2023/04/03 16:50:47;;;;;;;3.55;1.90;;;;;;;8.53;39.70;102964.41;10373597;28;20065;-75
2023/04/03 16:55:48;;;;;;;2.22;2.03;;;;;;;8.51;39.60;102955.59;10374810;28;20064;-74
2023/04/03 17:00:49;;;;;;;5.13;1.80;;;;;;;8.43;40.61;102960.81;10372482;28;20423;-75
2023/04/03 17:05:49;;;;;;;1.58;1.27;;;;;;;8.33;39.75;102965.28;10381538;28;20030;-75
2023/04/03 17:10:53;;;;;;;2.88;2.15;;;;;;;8.26;41.09;102961.38;10381392;28;20167;-75
2023/04/03 17:15:53;;;;;;;1.02;1.02;;;;;;;8.14;40.82;102958.75;10380727;28;20034;-76
2023/04/03 17:20:55;;;;;;;1.98;1.83;;;;;;;8.08;42.30;102958.41;10381070;28;20049;-75
2023/04/03 17:25:56;;;;;;;4.40;2.17;;;;;;;7.98;42.85;102952.94;10395569;28;20038;-75
2023/04/03 17:30:59;;;;;;;5.70;1.90;;;;;;;7.88;43.03;102952.88;10379065;28;20445;-76
2023/04/03 17:36:01;;;;;;;1.27;1.23;;;;;;;7.81;43.95;102964.28;10380532;28;20059;-75
2023/04/03 17:41:03;;;;;;;2.03;1.92;;;;;;;7.73;43.70;102964.09;10379064;28;20366;-75
2023/04/03 17:46:07;;;;;;;4.03;2.03;;;;;;;7.65;44.60;102965.56;10380495;28;20033;-77
2023/04/03 17:51:12;;;;;;;1.25;1.17;;;;;;;7.51;45.76;102962.31;10380605;28;20041;-76
2023/04/03 17:56:23;;;;;;;2.42;1.25;;;;;;;7.34;45.83;102977.16;10378548;28;20042;-75
2023/04/03 18:01:25;;;;;;;4.15;2.17;;;;;;;7.23;46.49;102972.66;10395156;28;20096;-75
2023/04/03 18:06:27;;;;;;;3.47;1.50;;;;;;;7.12;47.38;102984.31;10393486;28;20037;-75
2023/04/03 18:11:28;;;;;;;2.33;1.77;;;;;;;7.03;47.92;102993.13;10394445;28;20026;-75
2023/04/03 18:16:28;;;;;;;3.60;1.77;;;;;;;6.93;48.98;102997.53;10392951;28;20497;-75
2023/04/03 18:21:29;;;;;;;2.80;2.55;;;;;;;6.75;49.73;103000.69;10377357;28;20030;-75
2023/04/03 18:26:29;;;;;;;3.10;2.22;;;;;;;6.71;50.30;102993.00;10377769;28;20034;-74
2023/04/03 18:31:31;;;;;;;2.38;1.90;;;;;;;6.63;50.44;102996.28;10379310;28;20065;-76
2023/04/03 18:36:31;;;;;;;1.60;1.50;;;;;;;6.53;51.13;103006.06;10377387;28;20026;-76
2023/04/03 18:41:32;;;;;;;2.47;2.25;;;;;;;6.37;51.74;102998.31;10376439;28;20042;-75
2023/04/03 18:46:33;;;;;;;3.72;1.95;;;;;;;6.27;52.83;103000.00;10375804;28;20033;-77
2023/04/03 18:51:34;;;;;;;2.00;1.80;;;;;;;6.17;53.65;103005.22;10393452;28;20117;-77
2023/04/03 18:56:35;;;;;;;6.07;1.65;;;;;;;6.11;54.59;103021.84;10376875;28;20537;-75
2023/04/03 19:01:36;;;;;;;4.53;2.00;;;;;;;6.00;54.97;103013.72;10376702;28;20040;-77
2023/04/03 19:06:36;;;;;;;1.83;1.73;;;;;;;5.94;55.38;103019.56;10376014;28;20108;-77
2023/04/03 19:11:37;;;;;;;6.85;1.83;;;;;;;5.85;55.87;103028.28;10392073;28;20049;-77
2023/04/03 19:16:38;;;;;;;4.18;2.28;;;;;;;5.76;56.95;103033.38;10376591;28;20061;-77
2023/04/03 19:21:39;;;;;;;4.38;1.92;;;;;;;5.70;57.34;103028.44;10375979;28;20050;-77
2023/04/03 19:26:40;;;;;;;5.95;3.15;;;;;;;5.60;57.94;103033.63;10390997;28;20355;-77
2023/04/03 19:31:41;;;;;;;4.72;2.08;;;;;;;5.54;58.76;103033.22;10374985;28;20050;-78
2023/04/03 19:36:42;;;;;;;4.43;3.30;;;;;;;5.49;58.98;103019.28;10374246;28;20092;-78
2023/04/03 19:41:44;;;;;;;4.53;2.38;;;;;;;5.44;59.40;103034.88;10376247;28;20064;-77
2023/04/03 19:46:44;;;;;;;2.90;2.40;;;;;;;5.35;60.31;103034.56;10390120;28;20030;-75
2023/04/03 19:51:45;;;;;;;1.75;1.63;;;;;;;5.26;60.42;103040.59;10376118;28;20038;-76
2023/04/03 19:56:45;;;;;;;4.00;1.80;;;;;;;5.18;61.34;103032.25;10375278;28;20129;-75
2023/04/03 20:01:46;;;;;;;2.28;2.03;;;;;;;5.12;61.58;103025.47;10391762;28;20030;-74
2023/04/03 20:06:46;;;;;;;1.67;1.58;;;;;;;5.12;61.61;103038.91;10377511;28;20484;-75
2023/04/03 20:11:47;;;;;;;3.55;2.63;;;;;;;5.07;61.52;103035.72;10376499;28;20148;-77
2023/04/03 20:16:47;;;;;;;6.50;2.15;;;;;;;4.95;62.93;103038.41;10392034;28;20037;-77
2023/04/03 20:21:49;;;;;;;8.75;2.78;;;;;;;4.87;63.69;103034.41;10391576;28;20161;-76
2023/04/03 20:26:49;;;;;;;8.20;3.25;;;;;;;4.81;63.83;103034.84;10389503;28;20109;-74
2023/04/03 20:31:52;;;;;;;3.63;3.08;;;;;;;4.72;65.10;103045.34;10374767;28;20049;-75
2023/04/03 20:36:53;;;;;;;4.32;3.35;;;;;;;4.68;65.39;103041.16;10372974;28;20035;-75
2023/04/03 20:41:54;;;;;;;3.80;3.28;;;;;;;4.70;64.95;103044.63;10374332;28;20497;-74
2023/04/03 20:46:55;;;;;;;5.15;2.85;;;;;;;4.62;65.38;103035.25;10390531;28;20041;-76
2023/04/03 20:51:55;;;;;;;2.17;2.00;;;;;;;4.51;66.67;103042.34;10374847;28;20037;-76
2023/04/03 20:56:56;;;;;;;4.38;3.22;;;;;;;4.44;66.99;103023.13;10375698;28;20489;-74
2023/04/03 21:01:57;;;;;;;3.17;2.90;;;;;;;4.39;67.63;103031.47;10373833;28;20038;-74
2023/04/03 21:07:37;;;;;;;3.33;2.83;;;;;;;4.42;67.49;103025.91;10373857;28;20030;-75
2023/04/03 21:13:16;;;;;;;3.00;2.42;;;;;;;4.31;68.32;103033.84;10375535;28;20045;-74
2023/04/03 21:18:25;;;;;;;7.38;2.35;;;;;;;4.39;66.76;103033.31;10374339;28;20026;-74
2023/04/03 21:23:27;;;;;;;2.97;2.67;;;;;;;4.34;66.91;103035.44;10388710;28;20041;-74
2023/04/03 21:28:27;;;;;;;4.88;2.80;;;;;;;4.25;67.24;103034.25;10372895;28;20034;-76
2023/04/03 21:33:28;;;;;;;5.68;3.08;;;;;;;4.17;68.34;103034.75;10374297;28;20049;-75
2023/04/03 21:38:29;;;;;;;3.17;2.55;;;;;;;4.12;69.31;103028.00;10374352;28;20382;-75
2023/04/03 21:43:29;;;;;;;2.33;2.13;;;;;;;4.10;68.36;103033.44;10371461;28;20026;-74
2023/04/03 21:48:30;;;;;;;2.85;2.65;;;;;;;4.04;67.47;103044.56;10357702;28;20033;-74
2023/04/03 21:53:32;;;;;;;3.10;2.63;;;;;;;3.94;67.81;103047.00;10380126;28;20037;-74
2023/04/03 21:58:33;;;;;;;2.70;2.50;;;;;;;3.85;67.76;103047.63;10381280;28;20080;-76
2023/04/03 22:03:33;;;;;;;3.25;2.00;;;;;;;3.74;67.36;103044.78;10379239;28;20076;-74
2023/04/03 22:08:34;;;;;;;3.00;2.50;;;;;;;3.62;68.09;103045.59;10395106;28;20092;-74
2023/04/03 22:13:34;;;;;;;4.78;2.17;;;;;;;3.61;69.14;103027.81;10380483;28;20092;-75
2023/04/03 22:18:35;;;;;;;3.15;2.70;;;;;;;3.61;69.15;103035.84;10378894;28;20041;-74
2023/04/03 22:23:36;;;;;;;2.75;2.05;;;;;;;3.38;68.46;103035.50;10378662;28;20080;-74
2023/04/03 22:28:41;;;;;;;7.80;2.50;;;;;;;3.23;68.41;103036.47;10378593;28;20117;-74
2023/04/03 22:33:42;;;;;;;6.35;2.50;;;;;;;3.03;68.42;103032.34;10392811;28;20429;-77
2023/04/03 22:38:42;;;;;;;4.55;3.45;;;;;;;3.03;68.76;103021.66;10392792;28;20068;-74
2023/04/03 22:43:42;;;;;;;4.53;3.05;;;;;;;2.93;68.17;103018.69;10393668;28;20523;-75
2023/04/03 22:48:44;;;;;;;4.90;3.75;;;;;;;2.76;68.62;102992.13;10376372;28;20030;-75
2023/04/03 22:53:44;;;;;;;10.07;3.63;;;;;;;2.63;67.95;102994.69;10377551;28;20134;-74
2023/04/03 22:58:46;;;;;;;7.43;4.07;;;;;;;2.40;68.51;102998.78;10391962;28;20034;-73
2023/04/03 23:03:47;;;;;;;10.82;3.38;;;;;;;2.35;70.73;103006.22;10393640;28;20042;-74
2023/04/03 23:08:47;;;;;;;8.45;3.65;;;;;;;2.45;72.08;103003.84;10378181;28;20042;-74
2023/04/03 23:13:48;;;;;;;6.60;3.65;;;;;;;2.58;72.05;103006.63;10376797;28;20033;-74
2023/04/03 23:18:48;;;;;;;6.45;3.00;;;;;;;2.47;71.63;103001.94;10375351;28;20038;-77